Time;durP1;ratioP1;P1;durP2;ratioP2;P2;SDS_P1;SDS_P2;PMS_P1;PMS_P2;Temp;Humidity;BMP_temperature;BMP_pressure;BME280_temperature;BME280_humidity;BME280_pressure;Samples;Min_cycle;Max_cycle;Signal;HPM_P1;HPM_P2
2022/12/13 00:02:01;;;;;;;18.17;8.60;;;;;;;-1.42;100.00;97905.97;4264953;33;20511;-73
2022/12/13 00:04:28;;;;;;;12.82;6.95;;;;;;;-1.38;100.00;97917.78;4206526;34;20077;-74
2022/12/13 00:06:54;;;;;;;13.15;7.50;;;;;;;-1.35;100.00;97927.94;4208777;34;20068;-74
2022/12/13 00:09:22;;;;;;;12.45;6.50;;;;;;;-1.26;100.00;97974.28;4199590;34;20137;-74
2022/12/13 00:11:48;;;;;;;17.12;7.15;;;;;;;-1.41;100.00;97965.72;4204654;34;20047;-74
2022/12/13 00:14:15;;;;;;;15.00;7.60;;;;;;;-1.50;100.00;97972.97;4202407;34;20046;-73
2022/12/13 00:16:45;;;;;;;11.48;5.70;;;;;;;-1.55;100.00;97933.16;4202104;34;20157;-74
2022/12/13 00:19:13;;;;;;;14.10;7.45;;;;;;;-1.51;100.00;97929.94;4201548;34;20069;-74
2022/12/13 00:21:39;;;;;;;14.80;9.13;;;;;;;-1.28;100.00;97965.72;4200960;34;20039;-74
2022/12/13 00:24:07;;;;;;;11.93;7.68;;;;;;;-1.49;100.00;97943.72;4192026;34;20059;-74
2022/12/13 00:26:34;;;;;;;20.75;7.82;;;;;;;-1.46;100.00;97948.63;4186347;34;20087;-75
2022/12/13 00:29:02;;;;;;;15.18;6.00;;;;;;;-1.38;100.00;97938.91;4188778;34;20067;-75
2022/12/13 00:31:32;;;;;;;16.48;7.55;;;;;;;-1.24;100.00;97969.62;4198500;34;20300;-75
2022/12/13 00:34:05;;;;;;;14.77;7.37;;;;;;;-1.26;100.00;97974.28;4197359;34;20102;-73
2022/12/13 00:36:31;;;;;;;12.45;7.62;;;;;;;-1.44;100.00;97974.03;4218241;33;20068;-74
2022/12/13 00:39:01;;;;;;;20.83;8.30;;;;;;;-1.34;100.00;97977.91;4225032;33;20072;-74
2022/12/13 00:41:31;;;;;;;15.43;6.10;;;;;;;-1.06;100.00;97984.09;4223328;33;20068;-74
2022/12/13 00:43:58;;;;;;;2.87;1.98;;;;;;;-1.40;100.00;97993.75;4223167;33;20066;-74
2022/12/13 00:46:25;;;;;;;13.93;8.70;;;;;;;-1.74;100.00;97982.22;4223040;33;20093;-74
2022/12/13 00:48:57;;;;;;;14.77;7.22;;;;;;;-1.43;100.00;97971.19;4219416;33;20446;-74
2022/12/13 00:51:24;;;;;;;20.30;8.23;;;;;;;-1.37;100.00;97982.75;4218909;34;20072;-74
2022/12/13 00:53:51;;;;;;;8.68;5.72;;;;;;;-1.17;100.00;97988.91;4216916;34;20065;-74
2022/12/13 00:56:20;;;;;;;14.55;6.85;;;;;;;-1.77;100.00;98003.72;4243089;33;20041;-75
2022/12/13 00:58:51;;;;;;;18.02;8.43;;;;;;;-1.42;100.00;97995.75;4239840;33;20098;-74
2022/12/13 03:02:39;;;;;;;8.32;5.30;;;;;;;-2.18;100.00;98033.53;4324225;28;20097;-74
2022/12/13 03:08:26;;;;;;;8.93;5.57;;;;;;;-2.08;100.00;98039.28;4267923;33;20041;-74
2022/12/13 03:11:04;;;;;;;7.87;4.95;;;;;;;-2.13;100.00;98046.97;4250679;33;20060;-73
2022/12/13 03:13:37;;;;;;;11.88;6.43;;;;;;;-2.35;100.00;98035.63;4252581;33;20038;-74
2022/12/13 03:16:33;;;;;;;9.05;5.07;;;;;;;-2.23;100.00;98027.00;4252453;33;20046;-73
2022/12/13 03:19:03;;;;;;;13.30;6.00;;;;;;;-2.43;100.00;98000.47;4251060;33;20037;-74
2022/12/13 03:21:41;;;;;;;11.30;7.22;;;;;;;-2.43;100.00;98047.13;4251486;33;20052;-73
2022/12/13 03:24:08;;;;;;;9.70;4.70;;;;;;;-2.15;100.00;98043.69;4251451;33;20042;-73
2022/12/13 03:26:37;;;;;;;10.38;4.97;;;;;;;-2.46;100.00;98058.06;4254954;33;20034;-73
2022/12/13 03:29:03;;;;;;;10.52;5.70;;;;;;;-2.15;100.00;98039.22;4251714;33;20060;-74
2022/12/13 03:31:29;;;;;;;8.50;4.60;;;;;;;-2.21;100.00;98051.34;4251064;33;20064;-73
2022/12/13 03:33:57;;;;;;;8.52;5.28;;;;;;;-2.39;100.00;98064.22;4250415;33;20084;-73
2022/12/13 03:36:24;;;;;;;10.13;4.97;;;;;;;-2.50;100.00;98004.91;4250670;33;20064;-74
2022/12/13 03:38:52;;;;;;;10.05;5.87;;;;;;;-2.48;100.00;98004.72;4251862;33;20042;-74
2022/12/13 03:41:21;;;;;;;9.82;5.75;;;;;;;-2.23;100.00;98042.81;4254995;33;20375;-74
2022/12/13 03:43:48;;;;;;;9.23;5.70;;;;;;;-2.15;100.00;98035.75;4267005;33;20034;-73
2022/12/13 03:46:15;;;;;;;6.87;5.00;;;;;;;-2.47;100.00;98035.31;4267342;33;20045;-74
2022/12/13 03:48:41;;;;;;;8.77;3.83;;;;;;;-2.62;100.00;98015.12;4267241;33;20046;-74
2022/12/13 03:51:08;;;;;;;8.40;5.28;;;;;;;-2.81;100.00;97990.25;4267803;33;20239;-74
2022/12/13 03:53:34;;;;;;;7.57;5.28;;;;;;;-2.74;100.00;98014.84;4268173;33;20055;-73
2022/12/13 03:56:03;;;;;;;10.48;5.82;;;;;;;-2.64;100.00;98011.87;4265186;33;20071;-74
2022/12/13 03:58:31;;;;;;;11.43;6.60;;;;;;;-2.46;100.00;98063.31;4267867;33;20181;-73
2022/12/13 04:00:57;;;;;;;15.65;6.18;;;;;;;-2.46;100.00;98043.03;4267925;33;20470;-74
2022/12/13 04:03:24;;;;;;;6.05;4.80;;;;;;;-2.34;100.00;98040.72;4267953;33;20140;-74
2022/12/13 04:05:50;;;;;;;8.43;5.75;;;;;;;-2.69;100.00;98018.72;4267223;33;20385;-73
2022/12/13 04:08:16;;;;;;;7.45;4.85;;;;;;;-2.34;100.00;98048.63;4222557;34;20061;-74
2022/12/13 04:10:43;;;;;;;7.85;4.45;;;;;;;-2.61;100.00;98051.03;4222393;34;20098;-74
2022/12/13 04:15:55;;;;;;;6.75;4.03;;;;;;;-2.46;100.00;98058.06;4222275;34;20039;-74
2022/12/13 04:18:21;;;;;;;15.82;4.93;;;;;;;-2.43;100.00;98057.66;4223212;34;20179;-75
2022/12/13 04:20:48;;;;;;;8.63;4.90;;;;;;;-2.74;100.00;98053.56;4218707;34;20043;-74
2022/12/13 04:23:15;;;;;;;7.05;5.15;;;;;;;-2.51;100.00;98050.69;4186392;34;20439;-74
2022/12/13 04:25:42;;;;;;;5.90;4.40;;;;;;;-2.48;100.00;98052.16;4181491;34;20032;-73
2022/12/13 04:28:09;;;;;;;7.20;3.72;;;;;;;-2.81;100.00;98029.78;4166210;34;20052;-74
2022/12/13 04:30:36;;;;;;;8.13;4.70;;;;;;;-2.95;100.00;98067.53;4181668;34;20070;-74
2022/12/13 04:33:02;;;;;;;10.55;4.60;;;;;;;-2.80;100.00;98067.47;4181462;34;20066;-74
2022/12/13 04:35:29;;;;;;;8.07;4.95;;;;;;;-2.87;100.00;98066.56;4194150;34;20035;-74
2022/12/13 04:37:56;;;;;;;4.32;2.78;;;;;;;-3.11;100.00;98055.41;4193712;34;20044;-73
2022/12/13 04:40:22;;;;;;;6.55;3.80;;;;;;;-3.13;100.00;98058.22;4216782;34;20154;-74
2022/12/13 04:42:49;;;;;;;6.35;3.78;;;;;;;-3.02;100.00;98016.59;4222886;34;20229;-74
2022/12/13 04:45:17;;;;;;;8.75;3.05;;;;;;;-2.73;100.00;98073.59;4216700;34;20072;-73
2022/12/13 04:47:43;;;;;;;6.60;3.62;;;;;;;-2.85;100.00;98032.97;4208861;34;20050;-74
2022/12/13 04:50:10;;;;;;;8.00;4.15;;;;;;;-2.85;100.00;98038.25;4207803;34;20062;-73
2022/12/13 04:52:38;;;;;;;4.57;2.58;;;;;;;-3.07;100.00;98040.84;4209136;34;20116;-74
2022/12/13 04:55:05;;;;;;;9.57;4.32;;;;;;;-2.99;100.00;98080.22;4229969;33;20042;-74
2022/12/13 04:57:32;;;;;;;5.07;3.75;;;;;;;-2.85;100.00;98085.66;4236753;33;20422;-74
2022/12/13 04:59:58;;;;;;;8.90;4.28;;;;;;;-2.67;100.00;98072.87;4236023;33;20068;-74
2022/12/13 05:02:25;;;;;;;9.32;4.28;;;;;;;-2.82;100.00;98051.84;4235082;33;20042;-74
2022/12/13 05:04:51;;;;;;;8.73;5.05;;;;;;;-2.58;100.00;98066.47;4237302;33;20072;-74
2022/12/13 05:07:18;;;;;;;8.55;5.78;;;;;;;-3.03;100.00;98052.66;4237320;33;20030;-74
2022/12/13 05:09:44;;;;;;;6.53;4.22;;;;;;;-2.84;100.00;98071.47;4236745;33;20058;-74
2022/12/13 05:12:11;;;;;;;6.37;4.40;;;;;;;-2.67;100.00;98067.59;4238442;33;20392;-73
2022/12/13 05:14:37;;;;;;;7.60;4.22;;;;;;;-2.87;100.00;98041.06;4236885;33;20096;-73
2022/12/13 05:17:04;;;;;;;7.57;4.60;;;;;;;-3.23;100.00;98028.72;4225451;33;20080;-73
2022/12/13 05:19:30;;;;;;;8.50;3.55;;;;;;;-3.25;100.00;98090.50;4224014;34;20034;-74
2022/12/13 05:21:58;;;;;;;4.10;3.08;;;;;;;-2.98;100.00;98081.88;4225691;34;20082;-73
2022/12/13 05:24:24;;;;;;;6.28;3.62;;;;;;;-3.43;100.00;98098.75;4223909;34;20118;-74
2022/12/13 05:26:50;;;;;;;8.13;4.20;;;;;;;-3.38;100.00;98086.69;4225172;34;20055;-74
2022/12/13 05:29:17;;;;;;;3.55;2.75;;;;;;;-3.52;100.00;98059.38;4223791;34;20074;-74
2022/12/13 05:31:43;;;;;;;8.27;4.60;;;;;;;-3.69;100.00;98092.94;4225415;34;20042;-73
2022/12/13 05:34:10;;;;;;;9.20;4.62;;;;;;;-3.16;100.00;98098.09;4225463;34;20047;-73
2022/12/13 05:36:36;;;;;;;9.35;4.35;;;;;;;-3.03;100.00;98081.63;4222296;34;20060;-73
2022/12/13 05:39:03;;;;;;;9.32;3.72;;;;;;;-3.06;100.00;98103.06;4225344;34;20059;-74
2022/12/13 05:41:33;;;;;;;8.23;4.78;;;;;;;-3.58;100.00;98080.34;4223815;34;20046;-74
2022/12/13 05:44:01;;;;;;;6.45;3.60;;;;;;;-3.18;100.00;98065.03;4224729;34;20043;-74
2022/12/13 05:46:27;;;;;;;7.62;4.85;;;;;;;-3.50;100.00;98078.41;4223658;34;20205;-74
2022/12/13 05:48:54;;;;;;;4.35;3.47;;;;;;;-3.11;100.00;98108.06;4236367;33;20043;-73
2022/12/13 05:51:20;;;;;;;7.20;4.37;;;;;;;-3.54;100.00;98076.31;4263336;33;20038;-74
2022/12/13 05:53:47;;;;;;;8.82;4.57;;;;;;;-3.53;100.00;98091.12;4239307;33;20078;-74
2022/12/13 05:56:13;;;;;;;8.88;5.25;;;;;;;-3.90;100.00;98079.69;4236677;33;20058;-72
2022/12/13 05:58:40;;;;;;;6.25;4.43;;;;;;;-3.49;100.00;98106.38;4238285;33;20082;-73
2022/12/13 06:01:09;;;;;;;6.10;4.07;;;;;;;-3.48;100.00;98107.19;4233318;33;20128;-73
2022/12/13 06:03:36;;;;;;;9.25;4.55;;;;;;;-3.37;100.00;98124.34;4223809;34;20026;-73
2022/12/13 06:06:04;;;;;;;8.77;4.57;;;;;;;-3.57;100.00;98103.03;4223071;33;20097;-73
2022/12/13 06:08:31;;;;;;;7.32;4.22;;;;;;;-3.19;100.00;98110.78;4224878;34;20360;-73
2022/12/13 06:11:00;;;;;;;14.52;4.72;;;;;;;-3.45;100.00;98064.72;4228382;33;20035;-73
2022/12/13 06:13:26;;;;;;;7.72;4.97;;;;;;;-3.35;100.00;98083.69;4238815;33;20042;-73
2022/12/13 06:15:53;;;;;;;4.70;2.50;;;;;;;-3.40;100.00;98078.13;4209563;34;20114;-73
2022/12/13 06:18:21;;;;;;;6.22;4.07;;;;;;;-3.54;100.00;98102.66;4209794;34;20039;-74
2022/12/13 06:20:57;;;;;;;11.10;4.37;;;;;;;-3.62;100.00;98108.84;4196891;34;21006;-73
2022/12/13 06:23:23;;;;;;;4.15;2.45;;;;;;;-3.50;100.00;98119.72;4196908;34;20069;-74
2022/12/13 06:25:50;;;;;;;4.12;3.35;;;;;;;-3.62;100.00;98126.41;4210213;34;20465;-73
2022/12/13 06:28:22;;;;;;;2.17;1.95;;;;;;;-3.78;100.00;98144.03;4196664;34;20158;-73
2022/12/13 06:30:58;;;;;;;8.07;4.35;;;;;;;-4.21;100.00;98146.38;4195565;34;20368;-74
2022/12/13 06:33:25;;;;;;;6.68;5.05;;;;;;;-3.33;100.00;98131.69;4182997;34;20067;-74
2022/12/13 06:35:55;;;;;;;7.32;4.70;;;;;;;-3.40;100.00;98127.34;4194437;34;20082;-73
2022/12/13 06:38:22;;;;;;;5.93;3.87;;;;;;;-3.16;100.00;98131.50;4196623;34;20075;-74
2022/12/13 06:40:49;;;;;;;8.35;5.12;;;;;;;-3.45;100.00;98127.88;4190860;34;20197;-74
2022/12/13 06:43:17;;;;;;;1.10;1.10;;;;;;;-3.78;100.00;98138.75;4191540;34;20062;-74
2022/12/13 06:45:43;;;;;;;6.18;4.10;;;;;;;-4.05;100.00;98132.28;4182849;34;20044;-73
2022/12/13 06:48:10;;;;;;;5.55;3.37;;;;;;;-4.26;100.00;98102.22;4183662;34;20590;-73
2022/12/13 06:50:43;;;;;;;7.55;4.30;;;;;;;-4.04;100.00;98105.81;4194342;34;20083;-74
2022/12/13 06:53:09;;;;;;;13.10;4.50;;;;;;;-3.53;100.00;98141.13;4172318;34;20040;-73
2022/12/13 06:55:36;;;;;;;6.53;3.35;;;;;;;-3.55;100.00;98108.94;4177616;34;20075;-73
2022/12/13 06:58:02;;;;;;;4.05;2.90;;;;;;;-3.76;100.00;98107.81;4179104;34;20438;-78
2022/12/13 07:00:30;;;;;;;5.43;4.50;;;;;;;-3.85;100.00;98138.63;4193397;34;20214;-78
2022/12/13 07:02:56;;;;;;;1.90;1.80;;;;;;;-3.49;100.00;98151.13;4205612;34;20474;-79
2022/12/13 07:05:24;;;;;;;4.30;2.95;;;;;;;-4.00;100.00;98114.16;4215729;33;20051;-79
2022/12/13 07:07:50;;;;;;;2.22;1.55;;;;;;;-3.84;100.00;98139.47;4209619;34;20055;-80
2022/12/13 07:10:17;;;;;;;1.70;1.60;;;;;;;-4.13;100.00;98158.63;4215358;34;20074;-79
2022/12/13 07:12:43;;;;;;;3.87;3.50;;;;;;;-4.23;100.00;98145.72;4235097;33;20388;-80
2022/12/13 07:15:10;;;;;;;10.40;4.20;;;;;;;-4.12;100.00;98119.00;4233524;33;20043;-82
2022/12/13 07:17:36;;;;;;;3.72;2.28;;;;;;;-3.77;100.00;98177.22;4225187;34;20088;-81
2022/12/13 07:20:09;;;;;;;3.87;3.10;;;;;;;-3.97;100.00;98139.25;4225672;34;20043;-79
2022/12/13 07:22:36;;;;;;;6.15;3.00;;;;;;;-4.14;100.00;98128.09;4225080;34;20169;-80
2022/12/13 07:25:04;;;;;;;3.22;2.92;;;;;;;-3.94;100.00;98165.19;4209776;34;20458;-79
2022/12/13 07:27:31;;;;;;;4.65;3.65;;;;;;;-3.71;100.00;98173.06;4209927;34;20067;-79
2022/12/13 07:29:57;;;;;;;4.45;3.28;;;;;;;-3.59;100.00;98149.75;4193819;34;20043;-78
2022/12/13 07:32:24;;;;;;;3.97;3.50;;;;;;;-3.86;100.00;98175.66;4193508;34;20427;-78
2022/12/13 07:34:51;;;;;;;8.15;3.50;;;;;;;-3.92;100.00;98189.53;4195392;34;20055;-78
2022/12/13 07:37:18;;;;;;;2.90;2.67;;;;;;;-3.75;100.00;98191.03;4207761;34;20114;-78
2022/12/13 07:39:45;;;;;;;8.23;4.40;;;;;;;-3.90;100.00;98150.72;4209978;34;20061;-78
2022/12/13 07:42:11;;;;;;;3.28;2.62;;;;;;;-3.82;100.00;98190.09;4207782;34;20460;-76
2022/12/13 07:44:38;;;;;;;7.80;4.68;;;;;;;-3.93;100.00;98186.06;4179504;34;20032;-77
2022/12/13 07:47:04;;;;;;;3.60;3.10;;;;;;;-3.61;100.00;98185.97;4182009;34;20326;-78
2022/12/13 07:49:31;;;;;;;8.52;4.72;;;;;;;-3.73;100.00;98194.28;4182475;34;20052;-77
2022/12/13 07:51:57;;;;;;;4.28;2.50;;;;;;;-3.76;100.00;98199.91;4168671;34;20097;-77
2022/12/13 07:54:24;;;;;;;7.03;4.43;;;;;;;-4.03;100.00;98188.94;4168344;34;20127;-76
2022/12/13 07:56:50;;;;;;;6.25;3.80;;;;;;;-3.89;100.00;98194.44;4178343;34;20561;-75
2022/12/13 07:59:17;;;;;;;4.15;3.37;;;;;;;-3.92;100.00;98179.81;4191118;34;20094;-76
2022/12/13 08:01:43;;;;;;;6.70;4.32;;;;;;;-4.29;100.00;98155.16;4199665;34;20047;-77
2022/12/13 08:04:10;;;;;;;9.10;5.03;;;;;;;-4.08;100.00;98207.06;4219233;34;20100;-78
2022/12/13 08:06:37;;;;;;;4.75;2.97;;;;;;;-3.71;100.00;98187.03;4223488;34;20035;-77
2022/12/13 08:09:04;;;;;;;6.32;3.78;;;;;;;-3.94;100.00;98209.91;4221371;34;20051;-77
2022/12/13 08:11:31;;;;;;;6.15;5.15;;;;;;;-3.84;100.00;98194.72;4223208;34;21175;-77
2022/12/13 08:13:58;;;;;;;5.40;4.20;;;;;;;-3.89;100.00;98161.06;4223688;34;20038;-77
2022/12/13 08:16:24;;;;;;;10.00;4.57;;;;;;;-4.21;100.00;98164.78;4182599;34;20413;-77
2022/12/13 08:18:51;;;;;;;5.55;4.07;;;;;;;-3.94;100.00;98175.72;4194790;34;20080;-75
2022/12/13 08:21:17;;;;;;;6.37;3.78;;;;;;;-3.72;100.00;98206.47;4194692;34;20083;-75
2022/12/13 08:23:44;;;;;;;4.47;3.47;;;;;;;-3.72;100.00;98216.16;4194590;34;20059;-77
2022/12/13 08:26:10;;;;;;;8.20;4.18;;;;;;;-3.70;100.00;98209.72;4194822;34;20056;-77
2022/12/13 08:28:37;;;;;;;13.38;6.30;;;;;;;-3.50;100.00;98214.47;4192993;34;20117;-78
2022/12/13 08:31:13;;;;;;;7.78;3.65;;;;;;;-3.66;100.00;98207.53;4180755;34;20062;-76
2022/12/13 08:33:44;;;;;;;3.65;2.37;;;;;;;-3.77;100.00;98182.47;4182293;34;20344;-79
2022/12/13 08:36:14;;;;;;;6.47;4.70;;;;;;;-3.81;100.00;98220.66;4216715;34;20129;-79
2022/12/13 08:38:42;;;;;;;7.12;4.18;;;;;;;-3.97;100.00;98197.94;4223205;34;20042;-77
2022/12/13 08:41:08;;;;;;;6.35;3.75;;;;;;;-3.62;100.00;98226.41;4219724;34;20077;-78
2022/12/13 08:43:35;;;;;;;4.75;3.40;;;;;;;-4.01;100.00;98179.06;4195518;34;20057;-78
2022/12/13 08:46:02;;;;;;;4.45;3.55;;;;;;;-3.85;100.00;98232.53;4196073;34;20519;-77
2022/12/13 08:48:29;;;;;;;9.20;3.55;;;;;;;-3.82;100.00;98232.19;4195389;34;20039;-74
2022/12/13 08:51:03;;;;;;;4.87;3.45;;;;;;;-3.84;100.00;98227.09;4193557;34;20049;-75
2022/12/13 08:53:30;;;;;;;7.53;4.40;;;;;;;-3.63;100.00;98235.31;4199783;34;20059;-77
2022/12/13 08:56:01;;;;;;;8.80;4.57;;;;;;;-3.53;100.00;98214.81;4211168;34;20061;-77
2022/12/13 08:58:28;;;;;;;20.00;8.32;;;;;;;-3.32;100.00;98237.81;4168937;34;20380;-75
2022/12/13 09:00:55;;;;;;;6.53;3.33;;;;;;;-3.71;100.00;98242.28;4170212;34;20056;-77
2022/12/13 09:03:22;;;;;;;9.55;4.00;;;;;;;-3.81;100.00;98244.34;4170953;34;20040;-77
2022/12/13 09:05:48;;;;;;;7.65;4.45;;;;;;;-3.80;100.00;98238.06;4169525;34;20036;-77
2022/12/13 09:08:16;;;;;;;12.98;5.15;;;;;;;-3.88;100.00;98201.31;4170038;34;20041;-76
2022/12/13 09:10:44;;;;;;;10.85;5.93;;;;;;;-3.30;100.00;98239.28;4181505;34;20040;-76
2022/12/13 09:13:11;;;;;;;10.63;5.53;;;;;;;-3.36;100.00;98242.63;4183211;34;20036;-77
2022/12/13 09:15:39;;;;;;;10.45;4.40;;;;;;;-3.59;100.00;98199.75;4182224;34;20481;-76
2022/12/13 09:18:06;;;;;;;7.60;4.43;;;;;;;-3.57;100.00;98203.03;4169912;34;20456;-76
2022/12/13 09:20:36;;;;;;;6.35;4.50;;;;;;;-3.20;100.00;98248.72;4168396;34;20066;-75
2022/12/13 09:23:04;;;;;;;2.80;2.12;;;;;;;-3.33;100.00;98242.25;4171414;34;20186;-77
2022/12/13 09:25:31;;;;;;;11.75;4.40;;;;;;;-3.73;100.00;98225.84;4158882;34;20044;-77
2022/12/13 09:28:00;;;;;;;8.15;4.50;;;;;;;-3.81;100.00;98231.19;4142185;34;20113;-77
2022/12/13 09:30:27;;;;;;;8.40;3.85;;;;;;;-3.90;100.00;98203.31;4139544;34;20077;-76
2022/12/13 09:32:55;;;;;;;5.85;4.00;;;;;;;-3.76;100.00;98247.25;4117235;34;20294;-76
2022/12/13 09:35:21;;;;;;;7.53;3.83;;;;;;;-3.56;100.00;98225.69;4116304;34;20037;-76
2022/12/13 09:37:48;;;;;;;7.85;4.22;;;;;;;-3.59;100.00;98249.75;4128420;34;20202;-77
2022/12/13 09:40:24;;;;;;;2.67;2.15;;;;;;;-3.41;100.00;98250.25;4115001;34;20133;-75
2022/12/13 09:42:55;;;;;;;8.80;4.53;;;;;;;-3.77;100.00;98214.03;4103837;34;20083;-76
2022/12/13 09:45:21;;;;;;;18.98;5.60;;;;;;;-3.67;100.00;98206.72;4101795;35;20053;-76
2022/12/13 09:47:49;;;;;;;6.10;3.87;;;;;;;-3.41;100.00;98237.09;4114818;34;20049;-76
2022/12/13 09:50:31;;;;;;;6.43;3.50;;;;;;;-3.73;100.00;98246.91;4088800;35;20111;-75
2022/12/13 09:53:00;;;;;;;6.13;3.50;;;;;;;-3.39;100.00;98242.97;4112600;34;20056;-74
2022/12/13 09:55:43;;;;;;;4.68;3.10;;;;;;;-3.60;100.00;98240.22;4130050;34;20106;-78
2022/12/13 09:58:16;;;;;;;13.07;6.07;;;;;;;-3.62;100.00;98247.47;4131576;34;20051;-75
2022/12/13 10:00:42;;;;;;;;;;;;;;;-3.47;100.00;98245.69;4155267;34;20060;-76
2022/12/13 10:03:14;;;;;;;10.60;6.12;;;;;;;-3.36;100.00;98245.25;4157802;34;20296;-76
2022/12/13 10:05:44;;;;;;;9.80;5.47;;;;;;;-3.30;100.00;98252.44;4169422;34;20062;-77
2022/12/13 10:08:16;;;;;;;12.20;5.12;;;;;;;-3.25;100.00;98248.47;4176243;34;20043;-76
2022/12/13 10:10:43;;;;;;;6.70;2.62;;;;;;;-3.47;100.00;98208.84;4220507;33;20051;-77
2022/12/13 10:13:20;;;;;;;11.27;5.80;;;;;;;-3.94;100.00;98247.56;4220123;33;20468;-76
2022/12/13 10:15:53;;;;;;;6.12;3.37;;;;;;;-3.53;100.00;98241.13;4222140;34;20078;-76
2022/12/13 10:18:30;;;;;;;7.80;4.85;;;;;;;-3.58;100.00;98243.50;4221454;34;20109;-76
2022/12/13 10:20:57;;;;;;;13.70;6.05;;;;;;;-3.69;100.00;98206.06;4228216;33;20074;-76
2022/12/13 10:23:24;;;;;;;8.65;3.65;;;;;;;-3.73;100.00;98225.84;4208371;34;20057;-73
2022/12/13 10:25:56;;;;;;;9.23;5.50;;;;;;;-3.85;100.00;98237.78;4208210;34;20049;-73
2022/12/13 10:28:32;;;;;;;16.45;5.80;;;;;;;-3.42;100.00;98206.47;4208396;34;20077;-74
2022/12/13 10:31:00;;;;;;;15.35;6.10;;;;;;;-3.18;100.00;98229.09;4195145;34;20057;-74
2022/12/13 10:33:31;;;;;;;7.80;3.97;;;;;;;-3.80;100.00;98188.09;4194956;34;20116;-73
2022/12/13 10:36:30;;;;;;;11.90;6.32;;;;;;;-3.52;100.00;98234.91;4195528;34;20051;-74
2022/12/13 10:38:58;;;;;;;8.60;4.35;;;;;;;-3.40;100.00;98241.34;4181331;34;20066;-73
2022/12/13 10:41:28;;;;;;;9.98;6.30;;;;;;;-3.58;100.00;98248.75;4188318;34;20047;-75
2022/12/13 10:44:10;;;;;;;6.82;4.35;;;;;;;-3.54;100.00;98203.50;4189065;34;20456;-74
2022/12/13 10:46:46;;;;;;;16.08;7.50;;;;;;;-3.45;100.00;98238.44;4181280;34;20075;-74
2022/12/13 10:49:25;;;;;;;8.10;5.10;;;;;;;-3.23;100.00;98231.47;4181852;34;20085;-74
2022/12/13 10:51:53;;;;;;;14.10;7.22;;;;;;;-3.33;100.00;98221.22;4180585;34;20409;-74
2022/12/13 10:54:36;;;;;;;11.98;6.10;;;;;;;-3.22;100.00;98221.75;4216222;33;20162;-73
2022/12/13 10:57:04;;;;;;;11.07;5.55;;;;;;;-3.18;100.00;98233.56;4237069;33;20247;-75
2022/12/13 10:59:35;;;;;;;13.57;5.68;;;;;;;-3.53;100.00;98196.41;4208053;34;20173;-74
2022/12/13 11:02:40;;;;;;;9.82;5.72;;;;;;;-3.22;100.00;98221.75;4215390;34;20064;-73
2022/12/13 11:05:35;;;;;;;14.32;7.00;;;;;;;-2.94;100.00;98217.47;4183586;34;20189;-73
2022/12/13 11:08:14;;;;;;;18.08;6.18;;;;;;;-2.67;100.00;98219.63;4164767;34;20209;-73
2022/12/13 11:10:43;;;;;;;20.15;4.93;;;;;;;-3.18;100.00;98191.44;4158390;34;20078;-73
2022/12/13 11:13:32;;;;;;;17.23;6.00;;;;;;;-3.33;100.00;98186.97;4153213;34;20371;-72
2022/12/13 11:16:00;;;;;;;10.30;5.62;;;;;;;-2.80;100.00;98212.38;4154590;34;20324;-73
2022/12/13 11:18:36;;;;;;;12.10;5.60;;;;;;;-3.06;100.00;98221.59;4154602;34;20113;-73
2022/12/13 11:21:06;;;;;;;15.40;6.90;;;;;;;-2.86;100.00;98223.66;4153773;34;20039;-74
2022/12/13 11:23:42;;;;;;;18.30;6.62;;;;;;;-3.08;100.00;98191.97;4151349;34;20041;-74
2022/12/13 11:26:16;;;;;;;11.30;5.53;;;;;;;-2.80;100.00;98215.03;4110560;34;20475;-72
2022/12/13 11:28:55;;;;;;;15.60;7.45;;;;;;;-3.59;100.00;98191.84;4127488;34;20068;-73
2022/12/13 11:32:07;;;;;;;8.57;6.03;;;;;;;-3.06;100.00;98231.28;4127817;34;20045;-74
2022/12/13 11:34:39;;;;;;;12.75;6.32;;;;;;;-3.51;100.00;98195.22;4124546;34;20072;-74
2022/12/13 11:37:57;;;;;;;14.30;5.95;;;;;;;-3.32;100.00;98180.72;4127312;34;20057;-74
2022/12/13 11:40:36;;;;;;;13.52;5.80;;;;;;;-2.75;100.00;98233.72;4121442;34;20881;-74
2022/12/13 11:43:27;;;;;;;8.23;5.35;;;;;;;-3.09;100.00;98240.37;4151133;34;20111;-74
2022/12/13 11:46:01;;;;;;;11.63;5.45;;;;;;;-3.30;100.00;98236.62;4141978;34;20094;-75
2022/12/13 11:48:40;;;;;;;9.80;4.70;;;;;;;-3.09;100.00;98237.75;4146698;34;20068;-75
2022/12/13 11:51:11;;;;;;;16.17;5.75;;;;;;;-3.32;100.00;98217.59;4138064;34;20029;-74
2022/12/13 11:53:49;;;;;;;5.18;3.42;;;;;;;-2.96;100.00;98237.91;4155921;34;20981;-75
2022/12/13 11:56:27;;;;;;;16.37;7.50;;;;;;;-3.36;100.00;98191.78;4161957;34;20200;-74
2022/12/13 11:59:22;;;;;;;15.48;7.95;;;;;;;-2.75;100.00;98244.28;4176253;34;20044;-74
2022/12/13 12:02:10;;;;;;;15.40;6.15;;;;;;;-2.75;100.00;98249.53;4326060;28;20118;-74
2022/12/13 12:04:43;;;;;;;7.75;3.83;;;;;;;-2.99;100.00;98246.19;4199594;34;20059;-73
2022/12/13 12:07:16;;;;;;;12.20;6.50;;;;;;;-3.40;100.00;98246.59;4173180;34;20066;-73
2022/12/13 12:09:50;;;;;;;17.15;6.18;;;;;;;-3.03;100.00;98242.28;4170122;34;20040;-73
2022/12/13 12:12:26;;;;;;;8.88;5.22;;;;;;;-3.02;100.00;98249.19;4226055;33;20080;-73
2022/12/13 12:15:01;;;;;;;7.45;3.75;;;;;;;-2.95;100.00;98244.84;4216457;33;20047;-74
2022/12/13 12:17:27;;;;;;;11.38;6.82;;;;;;;-3.45;100.00;98251.59;4228931;33;20211;-73
2022/12/13 12:19:57;;;;;;;15.00;7.00;;;;;;;-3.38;100.00;98234.09;4227149;33;20110;-75
2022/12/13 12:22:23;;;;;;;13.25;5.90;;;;;;;-3.26;100.00;98252.09;4228038;33;20038;-76
2022/12/13 12:24:59;;;;;;;17.05;7.40;;;;;;;-3.81;100.00;98228.56;4220751;34;20118;-76
2022/12/13 12:28:05;;;;;;;19.12;7.43;;;;;;;-3.20;100.00;98251.38;4224297;33;20057;-76
2022/12/13 12:30:54;;;;;;;16.50;8.05;;;;;;;-3.18;100.00;98249.38;4224463;34;20060;-77
2022/12/13 12:33:42;;;;;;;14.43;7.05;;;;;;;-2.88;100.00;98249.38;4224766;34;20035;-76
2022/12/13 12:36:49;;;;;;;14.07;6.70;;;;;;;-3.00;100.00;98260.38;4224310;34;20054;-77
2022/12/13 12:39:24;;;;;;;14.25;7.10;;;;;;;-3.09;100.00;98224.56;4250833;33;20482;-76
2022/12/13 12:42:12;;;;;;;6.95;4.57;;;;;;;-3.06;100.00;98253.19;4253296;33;20108;-76
2022/12/13 12:44:38;;;;;;;9.32;5.62;;;;;;;-3.24;100.00;98242.19;4252265;33;20111;-77
2022/12/13 12:47:33;;;;;;;14.93;7.07;;;;;;;-3.49;100.00;98216.13;4252429;33;20070;-77
2022/12/13 12:50:29;;;;;;;9.45;5.82;;;;;;;-3.00;100.00;98268.28;4254569;33;20046;-76
2022/12/13 12:53:10;;;;;;;14.82;7.32;;;;;;;-3.25;100.00;98253.72;4253784;33;20052;-79
2022/12/13 12:56:19;;;;;;;13.38;6.87;;;;;;;-2.76;100.00;98263.72;4247266;33;20039;-76
2022/12/13 12:58:55;;;;;;;12.82;6.90;;;;;;;-2.88;100.00;98266.00;4216413;34;20043;-77
2022/12/13 13:01:44;;;;;;;7.85;5.60;;;;;;;-3.14;100.00;98271.72;4226000;33;20030;-76
2022/12/13 13:04:15;;;;;;;12.02;5.32;;;;;;;-3.39;100.00;98279.84;4240179;33;20083;-77
2022/12/13 13:06:54;;;;;;;20.55;9.88;;;;;;;-3.66;100.00;98276.75;4240724;33;20111;-76
2022/12/13 13:09:23;;;;;;;14.32;7.18;;;;;;;-3.02;100.00;98278.16;4238458;33;20064;-76
2022/12/13 13:11:50;;;;;;;16.15;8.15;;;;;;;-3.41;100.00;98276.56;4240042;33;20056;-75
2022/12/13 13:14:27;;;;;;;13.25;5.68;;;;;;;-3.41;100.00;98244.97;4240673;33;20064;-76
2022/12/13 13:16:54;;;;;;;12.98;6.22;;;;;;;-3.42;100.00;98269.66;4238436;33;20380;-77
2022/12/13 13:19:30;;;;;;;14.27;7.00;;;;;;;-3.54;100.00;98277.19;4240440;33;20076;-77
2022/12/13 13:22:00;;;;;;;12.18;6.93;;;;;;;-3.43;100.00;98304.91;4240778;33;20030;-76
2022/12/13 13:24:29;;;;;;;8.93;5.32;;;;;;;-3.26;100.00;98294.22;4247895;33;20069;-75
2022/12/13 13:27:27;;;;;;;13.65;6.87;;;;;;;-3.71;100.00;98302.78;4253973;33;20046;-76
2022/12/13 13:30:04;;;;;;;6.20;3.62;;;;;;;-3.69;100.00;98263.97;4249339;33;20052;-76
2022/12/13 13:32:32;;;;;;;12.73;6.70;;;;;;;-3.84;100.00;98271.81;4253998;33;20055;-76
2022/12/13 13:35:39;;;;;;;19.17;6.87;;;;;;;-3.73;100.00;98273.22;4254327;33;20059;-76
2022/12/13 13:38:17;;;;;;;16.73;7.78;;;;;;;-3.57;100.00;98313.56;4225096;33;20305;-76
2022/12/13 13:40:44;;;;;;;11.43;5.97;;;;;;;-3.45;100.00;98322.66;4238774;33;20060;-76
2022/12/13 13:43:10;;;;;;;19.55;7.20;;;;;;;-3.54;100.00;98313.19;4241272;33;20064;-75
2022/12/13 13:45:57;;;;;;;16.05;8.73;;;;;;;-3.86;100.00;98280.84;4241269;33;20191;-76
2022/12/13 13:48:45;;;;;;;14.60;8.10;;;;;;;-3.17;100.00;98315.00;4240729;33;20064;-75